Time;durP1;ratioP1;P1;durP2;ratioP2;P2;SDS_P1;SDS_P2;PMS_P1;PMS_P2;Temp;Humidity;BMP_temperature;BMP_pressure;BME280_temperature;BME280_humidity;BME280_pressure;Samples;Min_cycle;Max_cycle;Signal;HPM_P1;HPM_P2
2023/01/04 00:03:39;;;;;;;17.90;12.30;;;21.70;63.70;;;;;;214053;1304;25353;-59
2023/01/04 00:08:43;;;;;;;14.60;12.40;;;21.70;63.80;;;;;;214111;1292;22480;-59
2023/01/04 00:13:49;;;;;;;14.80;11.90;;;21.70;64.20;;;;;;214263;1304;24294;-60
2023/01/04 00:18:54;;;;;;;20.20;12.70;;;21.60;63.90;;;;;;214194;1304;25322;-59
2023/01/04 00:24:00;;;;;;;17.70;13.70;;;21.60;64.10;;;;;;214142;1294;25098;-60
2023/01/04 00:29:10;;;;;;;18.70;13.90;;;21.60;64.00;;;;;;213989;1304;22622;-59
2023/01/04 00:34:16;;;;;;;13.60;12.20;;;21.60;64.50;;;;;;214284;1306;25439;-60
2023/01/04 00:39:20;;;;;;;15.30;13.00;;;21.50;64.20;;;;;;214141;1302;25210;-60
2023/01/04 00:44:24;;;;;;;16.30;14.10;;;21.50;64.30;;;;;;214202;1304;22477;-60
2023/01/04 00:49:30;;;;;;;14.50;13.00;;;21.50;64.30;;;;;;214189;1302;23987;-60
2023/01/04 00:54:34;;;;;;;14.70;13.20;;;21.50;64.30;;;;;;214049;1286;23393;-59
2023/01/04 00:59:38;;;;;;;18.90;14.20;;;21.50;64.40;;;;;;213954;1301;22707;-60
2023/01/04 01:04:42;;;;;;;16.80;14.90;;;21.40;64.30;;;;;;214095;1277;24249;-60
2023/01/04 01:09:47;;;;;;;17.40;13.70;;;21.50;64.70;;;;;;214258;1291;22826;-61
2023/01/04 01:14:52;;;;;;;15.90;13.10;;;21.40;64.40;;;;;;214359;1297;22589;-60
2023/01/04 01:20:04;;;;;;;14.90;13.30;;;21.30;64.50;;;;;;214114;1298;22493;-60
2023/01/04 01:25:08;;;;;;;15.90;13.90;;;21.30;64.30;;;;;;214063;1287;22865;-60
2023/01/04 01:30:12;;;;;;;17.10;13.30;;;21.30;63.90;;;;;;215573;1299;23850;-58
2023/01/04 01:35:16;;;;;;;15.40;13.70;;;21.20;63.70;;;;;;215498;1294;22593;-60
2023/01/04 01:40:21;;;;;;;13.90;12.40;;;21.30;63.80;;;;;;214439;1304;22593;-61
2023/01/04 01:45:33;;;;;;;16.70;13.90;;;21.20;63.40;;;;;;214092;1285;22478;-59
2023/01/04 01:50:43;;;;;;;;;;;21.20;63.10;;;;;;214172;1298;26557;-60
2023/01/04 01:55:49;;;;;;;15.10;12.50;;;21.20;63.00;;;;;;214114;1284;24330;-59
2023/01/04 02:00:53;;;;;;;15.60;13.30;;;21.20;62.80;;;;;;214054;1297;22650;-60
2023/01/04 02:06:00;;;;;;;16.30;13.00;;;21.20;62.70;;;;;;213744;1299;22598;-59
2023/01/04 02:11:04;;;;;;;15.10;13.30;;;21.10;62.30;;;;;;214088;1298;22467;-60
2023/01/04 02:16:21;;;;;;;15.50;12.70;;;21.10;62.70;;;;;;213814;1297;22471;-57
2023/01/04 02:21:44;;;;;;;15.20;12.40;;;21.10;62.30;;;;;;214192;1294;22492;-59
2023/01/04 02:27:16;;;;;;;16.00;12.70;;;21.10;63.10;;;;;;214001;1291;22506;-59
2023/01/04 02:32:24;;;;;;;14.90;13.00;;;21.00;63.00;;;;;;213891;1304;25371;-59
2023/01/04 02:38:11;;;;;;;14.10;11.80;;;21.10;62.70;;;;;;213935;1298;24231;-59
2023/01/04 02:54:18;;;;;;;14.90;12.20;;;21.30;62.10;;;;;;213847;1306;22453;-58
2023/01/04 02:59:50;;;;;;;14.70;12.70;;;21.50;61.70;;;;;;214095;1304;22462;-60
2023/01/04 03:10:40;;;;;;;15.20;12.60;;;21.70;61.60;;;;;;214291;1298;22469;-58
2023/01/04 03:15:51;;;;;;;12.90;11.60;;;21.80;60.90;;;;;;213959;1304;22529;-58
2023/01/04 03:21:00;;;;;;;16.10;13.30;;;21.90;60.70;;;;;;213817;1284;22417;-58
2023/01/04 03:37:42;;;;;;;14.50;12.00;;;22.20;59.80;;;;;;214125;1287;22483;-60
2023/01/04 03:49:04;;;;;;;14.80;12.20;;;22.30;59.80;;;;;;214076;1298;22525;-61
2023/01/04 03:54:30;;;;;;;15.70;11.70;;;22.30;59.20;;;;;;213982;1296;22487;-60
2023/01/04 03:59:48;;;;;;;13.70;12.10;;;22.30;59.20;;;;;;213928;1292;22536;-57
2023/01/04 04:10:16;;;;;;;14.00;11.50;;;22.20;59.30;;;;;;214101;1285;24325;-58
2023/01/04 04:15:20;;;;;;;14.40;12.20;;;22.20;59.40;;;;;;213964;1288;22472;-58
2023/01/04 04:20:24;;;;;;;14.60;12.10;;;22.10;59.80;;;;;;214158;1285;24305;-58
2023/01/04 04:25:28;;;;;;;12.40;11.00;;;22.10;59.40;;;;;;214062;1294;24460;-58
2023/01/04 04:30:32;;;;;;;14.70;11.90;;;22.00;59.50;;;;;;214006;1304;22737;-59
2023/01/04 04:35:38;;;;;;;13.30;11.60;;;22.00;59.60;;;;;;214333;1297;26187;-59
2023/01/04 04:46:04;;;;;;;13.20;11.30;;;21.90;59.60;;;;;;218795;1284;22514;-60
2023/01/04 04:51:09;;;;;;;13.50;12.10;;;21.80;59.50;;;;;;213885;1298;22576;-60
2023/01/04 04:56:13;;;;;;;13.40;11.00;;;21.80;59.60;;;;;;214350;1304;24000;-59
2023/01/04 05:01:18;;;;;;;13.60;12.20;;;21.80;59.60;;;;;;213721;1304;25369;-58
2023/01/04 05:06:23;;;;;;;15.00;11.90;;;21.80;59.60;;;;;;213910;1298;22464;-58
2023/01/04 05:16:49;;;;;;;14.10;12.20;;;21.70;59.60;;;;;;213949;1294;22600;-59
2023/01/04 05:21:54;;;;;;;17.00;12.90;;;21.70;59.70;;;;;;214317;1288;22463;-59
2023/01/04 05:27:00;;;;;;;15.00;11.70;;;21.60;59.70;;;;;;214161;1283;22554;-60
2023/01/04 05:32:05;;;;;;;14.60;12.00;;;21.50;59.80;;;;;;214262;1291;23833;-60
2023/01/04 05:37:09;;;;;;;13.30;11.90;;;21.50;59.90;;;;;;214097;1294;22463;-58
2023/01/04 05:42:26;;;;;;;15.20;12.10;;;21.50;60.00;;;;;;213835;1304;25309;-60
2023/01/04 05:47:31;;;;;;;15.60;12.30;;;21.40;59.90;;;;;;213878;1299;24356;-59
2023/01/04 05:52:36;;;;;;;12.40;11.10;;;21.40;60.00;;;;;;213945;1303;22543;-60
2023/01/04 05:57:42;;;;;;;13.70;11.50;;;21.40;59.70;;;;;;214088;1298;22973;-59
2023/01/04 06:02:46;;;;;;;12.70;11.00;;;21.60;59.50;;;;;;214099;1294;22458;-60
2023/01/04 06:07:51;;;;;;;12.30;10.20;;;21.70;59.30;;;;;;214167;1298;25372;-60
2023/01/04 06:12:55;;;;;;;13.70;11.50;;;21.80;59.10;;;;;;214002;1297;23853;-62
2023/01/04 06:18:00;;;;;;;11.70;10.50;;;21.90;58.80;;;;;;213994;1304;25384;-61
2023/01/04 06:23:04;;;;;;;13.60;12.00;;;22.00;58.60;;;;;;214136;1298;22454;-58
2023/01/04 06:28:10;;;;;;;12.60;9.90;;;22.10;58.70;;;;;;213798;1304;24439;-58
2023/01/04 06:33:14;;;;;;;12.50;10.40;;;22.20;58.10;;;;;;213971;1278;22468;-59
2023/01/04 06:38:18;;;;;;;10.50;9.40;;;22.20;57.90;;;;;;213988;1304;22488;-60
2023/01/04 06:43:23;;;;;;;12.10;10.40;;;22.20;58.20;;;;;;214176;1306;23029;-58
2023/01/04 06:48:27;;;;;;;10.80;9.50;;;22.30;57.90;;;;;;213927;1300;22461;-58
2023/01/04 06:53:31;;;;;;;12.30;10.00;;;22.30;57.80;;;;;;214226;1291;22468;-60
2023/01/04 06:58:36;;;;;;;11.60;10.10;;;22.30;57.80;;;;;;214083;1299;24012;-60
2023/01/04 07:03:41;;;;;;;11.70;9.50;;;22.40;58.00;;;;;;213919;1298;22519;-62
2023/01/04 07:08:45;;;;;;;13.40;9.90;;;22.40;58.20;;;;;;213735;1305;25147;-60
2023/01/04 07:13:51;;;;;;;13.60;9.00;;;22.40;58.30;;;;;;214184;1299;22463;-60
2023/01/04 07:18:57;;;;;;;12.10;9.40;;;22.40;59.00;;;;;;214021;1289;22668;-59
2023/01/04 07:24:01;;;;;;;19.00;9.70;;;22.30;59.10;;;;;;212983;1311;24523;-60
2023/01/04 07:29:15;;;;;;;12.40;8.50;;;22.30;58.90;;;;;;212699;1305;22483;-61
2023/01/04 07:34:22;;;;;;;11.20;9.40;;;22.30;59.10;;;;;;215233;1296;22683;-60
2023/01/04 07:39:26;;;;;;;11.70;8.70;;;22.10;59.40;;;;;;212843;1299;23540;-59
2023/01/04 07:44:30;;;;;;;11.70;9.50;;;22.20;59.60;;;;;;213277;1305;25218;-58
2023/01/04 07:49:35;;;;;;;12.40;9.00;;;22.20;59.90;;;;;;213775;1284;22828;-59
2023/01/04 07:54:39;;;;;;;12.40;8.80;;;22.20;59.70;;;;;;213939;1297;22470;-60
2023/01/04 07:59:44;;;;;;;12.10;8.60;;;22.10;60.40;;;;;;215890;1287;24253;-60
2023/01/04 08:04:48;;;;;;;15.10;8.70;;;22.00;60.00;;;;;;213441;1302;25411;-63
2023/01/04 08:09:52;;;;;;;15.90;9.40;;;22.10;60.10;;;;;;214818;1287;22690;-63
2023/01/04 08:14:56;;;;;;;9.80;8.00;;;22.00;60.00;;;;;;213575;1284;22471;-62
2023/01/04 08:20:01;;;;;;;16.50;9.10;;;22.00;60.50;;;;;;221366;1306;221008;-62
2023/01/04 08:25:05;;;;;;;12.40;8.20;;;21.90;60.20;;;;;;216451;1296;22621;-63
2023/01/04 08:30:11;;;;;;;13.90;9.00;;;21.90;60.20;;;;;;214085;1299;24139;-64
2023/01/04 08:35:15;;;;;;;12.20;7.80;;;21.90;60.10;;;;;;213900;1284;22481;-64
2023/01/04 08:40:19;;;;;;;9.20;7.70;;;21.90;59.60;;;;;;214020;1306;24327;-64
2023/01/04 08:45:23;;;;;;;8.70;7.30;;;21.80;60.00;;;;;;213879;1299;22488;-65
2023/01/04 08:50:28;;;;;;;8.40;7.50;;;21.80;60.30;;;;;;213763;1287;22526;-63
2023/01/04 08:55:32;;;;;;;10.40;7.40;;;21.70;60.50;;;;;;213612;1290;22477;-63
2023/01/04 09:00:36;;;;;;;8.20;6.70;;;21.70;59.90;;;;;;213429;1291;25317;-64
2023/01/04 09:05:43;;;;;;;12.40;7.00;;;21.70;60.00;;;;;;213708;1291;22459;-62
2023/01/04 09:10:47;;;;;;;7.60;6.90;;;21.60;60.10;;;;;;214206;1281;23606;-61
2023/01/04 09:15:52;;;;;;;8.50;6.70;;;21.60;60.10;;;;;;213828;1281;22469;-63
2023/01/04 09:20:57;;;;;;;8.30;6.70;;;21.60;60.20;;;;;;214136;1284;22488;-64
2023/01/04 09:26:09;;;;;;;7.30;6.00;;;21.50;60.50;;;;;;213775;1300;25378;-63
2023/01/04 09:31:16;;;;;;;7.10;6.40;;;21.50;60.60;;;;;;213743;1300;23836;-64
2023/01/04 09:36:20;;;;;;;9.00;6.40;;;21.50;60.50;;;;;;213857;1298;22576;-64
2023/01/04 09:41:38;;;;;;;10.40;6.80;;;21.40;60.50;;;;;;213965;1284;22466;-65
2023/01/04 09:46:54;;;;;;;8.60;6.60;;;21.40;60.80;;;;;;213763;1287;22519;-64
2023/01/04 09:52:04;;;;;;;8.20;6.50;;;21.40;60.30;;;;;;213701;1283;24397;-64
2023/01/04 09:57:20;;;;;;;8.10;6.20;;;21.40;60.30;;;;;;213976;1283;24980;-65
2023/01/04 10:02:49;;;;;;;7.00;6.30;;;21.30;60.30;;;;;;213900;1292;22458;-64
2023/01/04 10:07:53;;;;;;;7.20;6.00;;;21.30;60.70;;;;;;213895;1287;22484;-63
2023/01/04 10:12:57;;;;;;;6.80;6.20;;;21.30;60.70;;;;;;213797;1299;22496;-64
2023/01/04 10:18:28;;;;;;;6.40;5.80;;;21.20;60.80;;;;;;214458;1282;22471;-63
2023/01/04 10:24:13;;;;;;;8.80;6.00;;;21.20;60.40;;;;;;213670;1304;22474;-62
2023/01/04 10:29:28;;;;;;;6.50;5.70;;;21.30;60.30;;;;;;214064;1304;24350;-62
2023/01/04 10:34:40;;;;;;;6.50;5.40;;;21.40;59.80;;;;;;214449;1278;23204;-63
2023/01/04 10:39:51;;;;;;;9.60;5.70;;;21.50;59.50;;;;;;214296;1290;24522;-67
2023/01/04 10:45:06;;;;;;;6.50;5.10;;;21.60;59.10;;;;;;214074;1297;24250;-62
2023/01/04 10:50:24;;;;;;;6.50;4.90;;;21.60;59.30;;;;;;213839;1300;22617;-61
2023/01/04 10:55:37;;;;;;;7.10;5.50;;;21.70;60.80;;;;;;213688;1304;25216;-72
2023/01/04 11:00:46;;;;;;;6.20;5.10;;;21.70;61.30;;;;;;214114;1302;22569;-67
2023/01/04 11:05:57;;;;;;;5.80;4.80;;;21.80;61.90;;;;;;213922;1298;23259;-67
2023/01/04 11:11:09;;;;;;;5.60;5.10;;;21.80;62.50;;;;;;213712;1285;22710;-67
2023/01/04 11:16:14;;;;;;;6.40;4.80;;;21.80;62.30;;;;;;214113;1285;25693;-69
2023/01/04 11:21:25;;;;;;;5.20;4.70;;;21.80;62.80;;;;;;219231;1281;22461;-66
2023/01/04 11:26:34;;;;;;;5.70;4.70;;;21.90;63.40;;;;;;215899;1287;22516;-65
2023/01/04 11:31:53;;;;;;;7.10;5.80;;;22.00;63.40;;;;;;213798;1290;23228;-66
2023/01/04 11:36:57;;;;;;;5.20;4.40;;;22.00;63.10;;;;;;213898;1291;23065;-66
2023/01/04 11:42:04;;;;;;;5.10;4.60;;;22.10;64.00;;;;;;214115;1293;22531;-66
2023/01/04 11:47:19;;;;;;;5.20;4.60;;;22.10;63.90;;;;;;213697;1296;23865;-66
2023/01/04 11:52:31;;;;;;;4.70;4.30;;;22.20;63.80;;;;;;213700;1284;22480;-65
2023/01/04 11:57:36;;;;;;;4.60;4.20;;;22.20;64.20;;;;;;214091;1284;22589;-65
2023/01/04 12:02:40;;;;;;;5.30;4.80;;;22.30;64.20;;;;;;214265;1284;22962;-65
2023/01/04 12:08:05;;;;;;;5.00;4.50;;;22.30;64.40;;;;;;214052;1290;22471;-66
2023/01/04 12:13:09;;;;;;;4.20;3.70;;;22.30;64.10;;;;;;214018;1304;22589;-66
2023/01/04 12:18:24;;;;;;;4.80;4.40;;;22.30;64.10;;;;;;214163;1287;24060;-66
2023/01/04 12:23:29;;;;;;;4.00;3.70;;;22.30;64.10;;;;;;213684;1303;22464;-66
2023/01/04 12:28:38;;;;;;;4.00;3.60;;;22.30;64.10;;;;;;213631;1298;22593;-64
2023/01/04 12:33:43;;;;;;;4.20;3.80;;;22.20;64.00;;;;;;214068;1291;22469;-66
2023/01/04 12:38:53;;;;;;;4.10;3.50;;;22.20;63.80;;;;;;214219;1289;22466;-65
2023/01/04 12:43:57;;;;;;;5.00;4.00;;;22.20;64.20;;;;;;213960;1298;22546;-66
2023/01/04 12:49:27;;;;;;;4.00;3.60;;;22.10;64.60;;;;;;213880;1282;22478;-66
2023/01/04 12:54:44;;;;;;;4.30;3.90;;;22.10;65.70;;;;;;214006;1294;22467;-65
2023/01/04 13:00:05;;;;;;;4.00;3.70;;;22.00;65.40;;;;;;214199;1288;25214;-66
2023/01/04 13:05:15;;;;;;;4.20;3.90;;;22.00;65.00;;;;;;213903;1299;22456;-66
2023/01/04 13:10:50;;;;;;;4.20;3.80;;;21.90;65.50;;;;;;214053;1287;23865;-66
2023/01/04 13:16:10;;;;;;;5.10;3.80;;;21.90;66.00;;;;;;213987;1287;22878;-67
2023/01/04 13:21:26;;;;;;;3.60;3.30;;;21.90;65.10;;;;;;214091;1306;23803;-67
2023/01/04 13:26:30;;;;;;;3.60;3.40;;;21.80;64.80;;;;;;214030;1299;25298;-66
2023/01/04 13:31:44;;;;;;;4.20;3.90;;;21.80;65.10;;;;;;214023;1306;22467;-66
2023/01/04 13:37:13;;;;;;;4.00;3.30;;;21.80;64.70;;;;;;213951;1287;22470;-67
2023/01/04 13:42:17;;;;;;;3.80;3.40;;;21.70;65.70;;;;;;214098;1296;22452;-67
2023/01/04 13:47:23;;;;;;;5.20;2.70;;;21.70;65.60;;;;;;214281;1297;23851;-62
2023/01/04 13:52:31;;;;;;;4.90;3.50;;;21.60;65.60;;;;;;216402;1309;25293;-59
2023/01/04 13:58:01;;;;;;;3.80;3.50;;;21.60;66.00;;;;;;213256;1299;22461;-61
2023/01/04 14:03:05;;;;;;;4.30;3.50;;;21.60;65.30;;;;;;213382;1288;22463;-60
2023/01/04 14:08:10;;;;;;;4.00;3.10;;;21.50;65.50;;;;;;213661;1290;22831;-59
2023/01/04 14:13:17;;;;;;;5.70;3.70;;;21.40;65.60;;;;;;214026;1304;22840;-60
2023/01/04 14:18:28;;;;;;;3.90;3.30;;;21.40;65.30;;;;;;213987;1305;25452;-60
2023/01/04 14:23:36;;;;;;;3.50;3.20;;;21.40;65.10;;;;;;214190;1299;22502;-62
2023/01/04 14:28:42;;;;;;;3.50;2.80;;;21.30;65.00;;;;;;215007;1288;24265;-61
2023/01/04 14:33:53;;;;;;;3.70;3.30;;;21.30;65.00;;;;;;214228;1298;22471;-62
2023/01/04 14:39:05;;;;;;;3.30;3.00;;;21.30;65.00;;;;;;213774;1298;24124;-59
2023/01/04 14:44:16;;;;;;;3.30;2.80;;;21.30;65.20;;;;;;213904;1287;24383;-59
2023/01/04 14:49:21;;;;;;;3.70;3.20;;;21.30;64.80;;;;;;213854;1301;25353;-60
2023/01/04 14:54:27;;;;;;;3.00;2.80;;;21.50;64.70;;;;;;213904;1297;23718;-60
2023/01/04 14:59:31;;;;;;;3.50;2.90;;;21.50;64.50;;;;;;213790;1291;22465;-60
2023/01/04 15:04:35;;;;;;;3.20;2.90;;;21.60;64.30;;;;;;214091;1294;22477;-59
2023/01/04 15:09:40;;;;;;;2.80;2.60;;;21.70;64.80;;;;;;214030;1295;25157;-61
2023/01/04 15:14:44;;;;;;;3.00;2.70;;;21.70;64.70;;;;;;214426;1288;23722;-61
2023/01/04 15:19:48;;;;;;;3.30;2.90;;;21.80;64.40;;;;;;214202;1286;22536;-61
2023/01/04 15:24:53;;;;;;;2.90;2.60;;;21.80;64.60;;;;;;214282;1296;22620;-61
2023/01/04 15:29:57;;;;;;;3.10;2.80;;;21.80;63.90;;;;;;214221;1287;22456;-62
2023/01/04 15:35:03;;;;;;;3.10;2.80;;;21.90;64.10;;;;;;214521;1303;25451;-61
2023/01/04 15:40:07;;;;;;;2.50;2.30;;;21.90;64.00;;;;;;214568;1294;24195;-61
2023/01/04 15:45:11;;;;;;;2.50;2.30;;;22.00;63.50;;;;;;214295;1294;22463;-60
2023/01/04 15:50:17;;;;;;;4.00;3.10;;;22.00;63.20;;;;;;214410;1302;25336;-61
2023/01/04 15:55:21;;;;;;;2.70;2.50;;;22.10;63.10;;;;;;214057;1294;22478;-61
2023/01/04 16:00:26;;;;;;;2.80;2.60;;;22.20;62.80;;;;;;214172;1301;25569;-61
2023/01/04 16:05:30;;;;;;;2.90;2.60;;;22.20;62.50;;;;;;214060;1292;22454;-60
2023/01/04 16:10:35;;;;;;;2.30;2.20;;;22.20;62.40;;;;;;213961;1306;22470;-60
2023/01/04 16:15:40;;;;;;;3.00;2.30;;;22.30;62.30;;;;;;214225;1290;22609;-60
2023/01/04 16:20:44;;;;;;;2.50;2.30;;;22.30;62.50;;;;;;214161;1283;22579;-60
2023/01/04 16:25:48;;;;;;;2.70;2.40;;;22.40;62.50;;;;;;214185;1291;22516;-61
2023/01/04 16:30:54;;;;;;;2.10;2.00;;;22.40;62.00;;;;;;214262;1297;22452;-60
2023/01/04 16:36:01;;;;;;;3.60;2.20;;;22.40;61.90;;;;;;214015;1282;23042;-61
2023/01/04 16:41:07;;;;;;;2.50;2.20;;;22.50;61.70;;;;;;214264;1302;23138;-60
2023/01/04 16:46:11;;;;;;;2.10;2.00;;;22.50;62.20;;;;;;214453;1296;22616;-61
2023/01/04 16:51:16;;;;;;;2.60;2.40;;;22.50;61.80;;;;;;213762;1301;22492;-60
2023/01/04 16:56:22;;;;;;;2.20;2.10;;;22.60;61.30;;;;;;214076;1288;22579;-61
2023/01/04 17:01:29;;;;;;;2.60;2.30;;;22.60;61.30;;;;;;214251;1295;25365;-62
2023/01/04 17:06:36;;;;;;;1.90;1.80;;;22.50;61.30;;;;;;214326;1287;24403;-61
2023/01/04 17:11:40;;;;;;;2.70;2.50;;;22.50;61.20;;;;;;214368;1291;24438;-59
2023/01/04 17:17:04;;;;;;;2.20;2.10;;;22.50;61.30;;;;;;214105;1276;22581;-61
2023/01/04 17:22:10;;;;;;;2.30;2.10;;;22.40;61.50;;;;;;214226;1304;24331;-61
2023/01/04 17:27:14;;;;;;;2.30;2.10;;;22.40;62.10;;;;;;214080;1298;22587;-61
2023/01/04 17:32:18;;;;;;;2.30;2.20;;;22.40;62.60;;;;;;214040;1296;23895;-59
2023/01/04 17:37:24;;;;;;;1.70;1.60;;;22.30;62.80;;;;;;214374;1299;22486;-60
2023/01/04 17:42:31;;;;;;;2.50;2.30;;;22.20;62.30;;;;;;214028;1288;24266;-61
2023/01/04 17:47:36;;;;;;;2.50;2.30;;;22.20;62.50;;;;;;214557;1302;22520;-60
2023/01/04 17:52:41;;;;;;;14.30;3.50;;;22.20;62.70;;;;;;214181;1291;25586;-59
2023/01/04 17:57:46;;;;;;;2.90;2.10;;;22.10;59.90;;;;;;216001;1290;22537;-64
2023/01/04 18:02:51;;;;;;;3.50;2.50;;;22.00;60.90;;;;;;213977;1295;24323;-64
2023/01/04 18:07:56;;;;;;;11.30;5.60;;;22.00;60.70;;;;;;213968;1293;26480;-64
2023/01/04 18:13:01;;;;;;;7.80;4.60;;;22.00;62.10;;;;;;214090;1289;23850;-63
2023/01/04 18:18:06;;;;;;;6.20;4.00;;;22.00;64.00;;;;;;214222;1292;25265;-63
2023/01/04 18:23:11;;;;;;;4.20;3.30;;;21.90;62.90;;;;;;214373;1300;22472;-64
2023/01/04 18:28:29;;;;;;;5.70;3.70;;;21.90;63.40;;;;;;214252;1302;25462;-65
2023/01/04 18:33:34;;;;;;;4.90;3.40;;;21.90;63.30;;;;;;214029;1306;25544;-63
2023/01/04 18:38:43;;;;;;;7.30;3.50;;;21.80;63.70;;;;;;213895;1292;24282;-58
2023/01/04 18:43:57;;;;;;;4.80;3.00;;;21.80;62.80;;;;;;214107;1289;23569;-57
2023/01/04 18:49:23;;;;;;;4.90;2.90;;;21.80;62.90;;;;;;214077;1294;22469;-59
2023/01/04 18:54:29;;;;;;;3.70;2.50;;;21.80;63.50;;;;;;213990;1306;22457;-52
2023/01/04 18:59:34;;;;;;;5.60;2.90;;;21.70;62.80;;;;;;213822;1299;22836;-66
2023/01/04 19:04:40;;;;;;;7.50;2.70;;;21.70;62.50;;;;;;214071;1289;23515;-67
2023/01/04 19:09:45;;;;;;;6.50;4.10;;;21.70;62.50;;;;;;214021;1283;23561;-66
2023/01/04 19:14:52;;;;;;;8.80;3.30;;;21.70;62.50;;;;;;214511;1292;22485;-67
2023/01/04 19:20:00;;;;;;;4.90;3.30;;;21.70;62.80;;;;;;214150;1291;23952;-66
2023/01/04 19:25:09;;;;;;;7.10;3.20;;;21.60;62.20;;;;;;214468;1303;25279;-67
2023/01/04 19:30:19;;;;;;;3.50;2.80;;;21.60;61.90;;;;;;214006;1294;25055;-67
2023/01/04 19:36:15;;;;;;;8.30;3.70;;;21.60;61.90;;;;;;214351;1303;24356;-65
2023/01/04 19:42:57;;;;;;;6.30;3.00;;;21.50;61.40;;;;;;209129;1332;542930;-61
2023/01/04 19:48:18;;;;;;;7.10;2.90;;;21.50;61.20;;;;;;212372;1313;22494;-61
2023/01/04 19:53:24;;;;;;;5.30;2.90;;;21.40;61.00;;;;;;212555;1313;198173;-60
2023/01/04 19:58:33;;;;;;;4.30;2.50;;;21.50;61.70;;;;;;212919;1297;22452;-61
2023/01/04 20:03:46;;;;;;;10.20;2.90;;;21.40;61.10;;;;;;212882;1302;25266;-61
2023/01/04 20:09:30;;;;;;;13.40;3.60;;;21.40;61.60;;;;;;212818;1302;22588;-60
2023/01/04 20:41:12;;;;;;;13.40;4.20;;;21.30;61.90;;;;;;190769;1310;950880;-58
2023/01/04 20:46:26;;;;;;;6.70;3.80;;;21.30;62.00;;;;;;208698;1311;25259;-59
2023/01/04 20:51:50;;;;;;;8.30;3.40;;;21.30;62.20;;;;;;208570;1312;25345;-60
2023/01/04 20:56:57;;;;;;;7.50;2.80;;;21.30;61.80;;;;;;208745;1312;22640;-60
2023/01/04 21:16:40;;;;;;;6.80;3.10;;;21.40;62.70;;;;;;208605;1311;22523;-60
2023/01/04 21:21:44;;;;;;;4.90;2.70;;;21.20;61.40;;;;;;208678;1305;22597;-59
2023/01/04 21:26:49;;;;;;;5.50;2.60;;;21.20;61.40;;;;;;208647;1307;22882;-58
2023/01/04 21:31:56;;;;;;;4.50;3.00;;;21.20;61.00;;;;;;211447;1305;26090;-61
2023/01/04 21:37:02;;;;;;;7.00;2.10;;;21.20;61.00;;;;;;208477;1320;26539;-65
2023/01/04 21:42:09;;;;;;;3.10;2.30;;;21.20;60.90;;;;;;208812;1312;22570;-62
2023/01/04 21:47:18;;;;;;;8.10;2.50;;;21.20;60.70;;;;;;208552;1311;24746;-65
2023/01/04 21:52:24;;;;;;;5.70;2.30;;;21.10;60.70;;;;;;209581;1309;22609;-63
2023/01/04 21:57:29;;;;;;;2.20;2.00;;;21.10;60.40;;;;;;209834;1308;22551;-70
2023/01/04 22:02:36;;;;;;;4.10;1.90;;;21.10;60.30;;;;;;209685;1305;25306;-68
2023/01/04 22:07:47;;;;;;;4.90;2.30;;;21.20;60.60;;;;;;209587;1298;22505;-68
2023/01/04 22:12:53;;;;;;;13.90;2.40;;;21.20;60.50;;;;;;209565;1306;26579;-67
2023/01/04 22:17:57;;;;;;;7.80;2.60;;;21.40;60.30;;;;;;210100;1304;22520;-63
2023/01/04 22:23:01;;;;;;;4.20;2.60;;;21.50;60.00;;;;;;209874;1305;22539;-61
2023/01/04 22:28:05;;;;;;;11.80;3.00;;;21.60;60.70;;;;;;210011;1312;22661;-61
2023/01/04 22:33:10;;;;;;;5.50;2.70;;;21.70;61.20;;;;;;209957;1312;22642;-62
2023/01/04 22:38:14;;;;;;;7.60;2.80;;;21.80;61.10;;;;;;209925;1304;22733;-62
2023/01/04 22:43:18;;;;;;;9.00;2.60;;;21.80;60.90;;;;;;209904;1305;22891;-61
2023/01/04 22:48:22;;;;;;;8.80;2.50;;;21.90;61.20;;;;;;209920;1304;22518;-62
2023/01/04 22:53:26;;;;;;;8.80;2.80;;;21.90;61.10;;;;;;209904;1312;25474;-61
2023/01/04 22:58:31;;;;;;;10.60;2.90;;;22.00;60.50;;;;;;209925;1310;24463;-61
2023/01/04 23:03:37;;;;;;;10.60;4.10;;;22.00;60.50;;;;;;209830;1304;24043;-62
2023/01/04 23:08:41;;;;;;;11.90;3.90;;;22.10;61.50;;;;;;209752;1301;25436;-61
2023/01/04 23:13:46;;;;;;;11.20;4.30;;;22.20;62.80;;;;;;209677;1304;22638;-62
2023/01/04 23:18:50;;;;;;;11.20;4.60;;;22.20;62.40;;;;;;209715;1305;24288;-62
2023/01/04 23:23:54;;;;;;;10.90;3.60;;;22.20;62.50;;;;;;209844;1306;22624;-62
2023/01/04 23:29:00;;;;;;;11.00;4.70;;;22.20;62.60;;;;;;209813;1298;22650;-62
2023/01/04 23:34:05;;;;;;;12.30;4.20;;;22.20;62.50;;;;;;209755;1305;22503;-62
2023/01/04 23:39:14;;;;;;;9.50;4.10;;;22.20;62.30;;;;;;210052;1305;22630;-62
2023/01/04 23:44:21;;;;;;;9.00;3.60;;;22.20;62.50;;;;;;209871;1304;25325;-62
2023/01/04 23:49:25;;;;;;;8.60;4.00;;;22.10;62.40;;;;;;209820;1304;22770;-60
2023/01/04 23:54:30;;;;;;;11.40;3.90;;;22.10;62.30;;;;;;209577;1305;23915;-62
2023/01/04 23:59:34;;;;;;;7.60;3.90;;;22.00;62.20;;;;;;209735;1298;24033;-62
